sensor_id;sensor_type;location;lat;lon;timestamp;pressure;altitude;pressure_sealevel;temperature;humidity
25638;BME280;13496;51.040;13.680;2023-04-10T00:03:05;100706.78;;;18.94;51.50
25638;BME280;13496;51.040;13.680;2023-04-10T00:08:07;100707.97;;;18.92;51.50
25638;BME280;13496;51.040;13.680;2023-04-10T00:13:09;100701.22;;;18.89;51.74
25638;BME280;13496;51.040;13.680;2023-04-10T00:18:11;100694.34;;;18.88;51.92
25638;BME280;13496;51.040;13.680;2023-04-10T00:23:12;100687.59;;;18.85;51.51
25638;BME280;13496;51.040;13.680;2023-04-10T00:28:14;100690.41;;;18.84;51.68
25638;BME280;13496;51.040;13.680;2023-04-10T00:33:17;100690.72;;;18.81;52.02
25638;BME280;13496;51.040;13.680;2023-04-10T00:38:19;100675.59;;;18.83;52.18
25638;BME280;13496;51.040;13.680;2023-04-10T00:43:21;100680.34;;;18.79;51.98
25638;BME280;13496;51.040;13.680;2023-04-10T00:48:22;100682.03;;;18.80;51.88
25638;BME280;13496;51.040;13.680;2023-04-10T00:53:24;100688.25;;;18.79;51.81
25638;BME280;13496;51.040;13.680;2023-04-10T00:58:26;100680.06;;;18.74;51.61
25638;BME280;13496;51.040;13.680;2023-04-10T01:03:27;100673.66;;;18.77;51.54
25638;BME280;13496;51.040;13.680;2023-04-10T01:19:14;100690.91;;;18.71;51.71
25638;BME280;13496;51.040;13.680;2023-04-10T01:24:47;100688.41;;;18.70;51.80
25638;BME280;13496;51.040;13.680;2023-04-10T01:29:55;100693.19;;;18.66;51.98
25638;BME280;13496;51.040;13.680;2023-04-10T01:35:02;100693.50;;;18.63;52.02
25638;BME280;13496;51.040;13.680;2023-04-10T01:40:09;100697.13;;;18.62;51.72
25638;BME280;13496;51.040;13.680;2023-04-10T01:45:16;100699.09;;;18.60;51.80
25638;BME280;13496;51.040;13.680;2023-04-10T01:50:22;100691.53;;;18.57;51.94
25638;BME280;13496;51.040;13.680;2023-04-10T01:55:25;100687.25;;;18.56;52.14
25638;BME280;13496;51.040;13.680;2023-04-10T02:00:40;100671.81;;;18.53;51.79
25638;BME280;13496;51.040;13.680;2023-04-10T02:05:51;100672.81;;;18.52;51.98
25638;BME280;13496;51.040;13.680;2023-04-10T02:11:02;100669.19;;;18.53;52.22
25638;BME280;13496;51.040;13.680;2023-04-10T02:16:07;100670.50;;;18.49;52.12
25638;BME280;13496;51.040;13.680;2023-04-10T02:21:09;100667.22;;;18.47;52.24
25638;BME280;13496;51.040;13.680;2023-04-10T02:26:11;100666.25;;;18.48;52.12
25638;BME280;13496;51.040;13.680;2023-04-10T02:31:13;100664.94;;;18.44;51.78
25638;BME280;13496;51.040;13.680;2023-04-10T02:36:15;100658.19;;;18.41;52.63
25638;BME280;13496;51.040;13.680;2023-04-10T02:41:16;100654.75;;;18.41;51.99
25638;BME280;13496;51.040;13.680;2023-04-10T02:46:18;100661.00;;;18.40;51.99
25638;BME280;13496;51.040;13.680;2023-04-10T02:51:20;100655.06;;;18.37;52.30
25638;BME280;13496;51.040;13.680;2023-04-10T02:56:22;100654.44;;;18.35;52.04
25638;BME280;13496;51.040;13.680;2023-04-10T03:01:23;100653.75;;;18.33;52.23
25638;BME280;13496;51.040;13.680;2023-04-10T03:06:25;100661.63;;;18.33;52.00
25638;BME280;13496;51.040;13.680;2023-04-10T03:11:29;100666.22;;;18.31;52.38
25638;BME280;13496;51.040;13.680;2023-04-10T03:16:31;100663.59;;;18.31;51.92
25638;BME280;13496;51.040;13.680;2023-04-10T03:21:32;100664.59;;;18.30;51.92
25638;BME280;13496;51.040;13.680;2023-04-10T03:26:34;100660.31;;;18.29;52.35
25638;BME280;13496;51.040;13.680;2023-04-10T03:31:36;100662.94;;;18.29;52.24
25638;BME280;13496;51.040;13.680;2023-04-10T03:36:38;100658.19;;;18.25;52.22
25638;BME280;13496;51.040;13.680;2023-04-10T03:41:40;100663.44;;;18.25;51.83
25638;BME280;13496;51.040;13.680;2023-04-10T03:46:41;100667.84;;;18.24;52.23
25638;BME280;13496;51.040;13.680;2023-04-10T03:51:44;100662.97;;;18.21;52.14
25638;BME280;13496;51.040;13.680;2023-04-10T03:56:46;100672.66;;;18.21;52.16
25638;BME280;13496;51.040;13.680;2023-04-10T04:01:48;100671.97;;;18.19;52.47
25638;BME280;13496;51.040;13.680;2023-04-10T04:06:50;100684.28;;;18.18;52.44
25638;BME280;13496;51.040;13.680;2023-04-10T04:12:10;100686.91;;;18.18;52.43
25638;BME280;13496;51.040;13.680;2023-04-10T04:17:36;100689.38;;;18.20;52.13
25638;BME280;13496;51.040;13.680;2023-04-10T04:22:40;100682.97;;;18.14;52.18
25638;BME280;13496;51.040;13.680;2023-04-10T04:27:52;100693.47;;;18.14;51.92
25638;BME280;13496;51.040;13.680;2023-04-10T04:33:10;100693.47;;;18.14;52.34
25638;BME280;13496;51.040;13.680;2023-04-10T04:38:30;100697.91;;;18.13;52.40
25638;BME280;13496;51.040;13.680;2023-04-10T04:43:45;100689.34;;;18.11;52.09
25638;BME280;13496;51.040;13.680;2023-04-10T04:49:14;100692.16;;;18.10;51.92
25638;BME280;13496;51.040;13.680;2023-04-10T04:54:39;100704.31;;;18.11;52.36
25638;BME280;13496;51.040;13.680;2023-04-10T04:59:50;100696.44;;;18.11;52.09
25638;BME280;13496;51.040;13.680;2023-04-10T05:05:11;100692.16;;;18.10;52.17
25638;BME280;13496;51.040;13.680;2023-04-10T05:10:36;100693.78;;;18.11;52.14
25638;BME280;13496;51.040;13.680;2023-04-10T05:15:43;100688.53;;;18.11;52.20
25638;BME280;13496;51.040;13.680;2023-04-10T05:20:54;100690.34;;;18.10;52.05
25638;BME280;13496;51.040;13.680;2023-04-10T05:26:18;100700.69;;;18.12;52.11
25638;BME280;13496;51.040;13.680;2023-04-10T05:31:26;100710.19;;;18.13;52.03
25638;BME280;13496;51.040;13.680;2023-04-10T05:36:34;100709.25;;;18.14;52.23
25638;BME280;13496;51.040;13.680;2023-04-10T05:41:40;100702.00;;;18.16;51.80
25638;BME280;13496;51.040;13.680;2023-04-10T05:47:00;100708.91;;;18.17;51.76
25638;BME280;13496;51.040;13.680;2023-04-10T05:52:08;100714.50;;;18.14;51.94
25638;BME280;13496;51.040;13.680;2023-04-10T05:57:30;100713.31;;;18.17;51.80
25638;BME280;13496;51.040;13.680;2023-04-10T06:02:51;100708.06;;;18.17;52.16
25638;BME280;13496;51.040;13.680;2023-04-10T06:07:59;100705.31;;;18.18;52.00
25638;BME280;13496;51.040;13.680;2023-04-10T06:13:01;100699.72;;;18.21;51.70
25638;BME280;13496;51.040;13.680;2023-04-10T06:18:03;100705.31;;;18.26;51.69
25638;BME280;13496;51.040;13.680;2023-04-10T06:23:05;100706.78;;;18.29;51.68
25638;BME280;13496;51.040;13.680;2023-04-10T06:28:07;100706.63;;;18.30;51.97
25638;BME280;13496;51.040;13.680;2023-04-10T06:33:09;100702.03;;;18.32;51.99
25638;BME280;13496;51.040;13.680;2023-04-10T06:38:15;100687.91;;;18.33;52.04
25638;BME280;13496;51.040;13.680;2023-04-10T06:43:17;100697.78;;;18.40;51.93
25638;BME280;13496;51.040;13.680;2023-04-10T06:48:19;100699.91;;;18.44;51.52
25638;BME280;13496;51.040;13.680;2023-04-10T06:53:20;100699.72;;;18.46;51.75
25638;BME280;13496;51.040;13.680;2023-04-10T06:58:22;100693.16;;;18.50;51.77
25638;BME280;13496;51.040;13.680;2023-04-10T07:03:24;100691.19;;;18.52;51.73
25638;BME280;13496;51.040;13.680;2023-04-10T07:08:26;100690.88;;;18.55;51.75
25638;BME280;13496;51.040;13.680;2023-04-10T07:13:28;100683.31;;;18.60;51.62
25638;BME280;13496;51.040;13.680;2023-04-10T07:18:30;100688.25;;;18.63;51.42
25638;BME280;13496;51.040;13.680;2023-04-10T07:23:31;100682.66;;;18.66;51.09
25638;BME280;13496;51.040;13.680;2023-04-10T07:28:33;100683.16;;;18.70;51.27
25638;BME280;13496;51.040;13.680;2023-04-10T07:33:36;100675.13;;;18.71;51.28
25638;BME280;13496;51.040;13.680;2023-04-10T07:38:38;100674.78;;;18.74;51.07
25638;BME280;13496;51.040;13.680;2023-04-10T07:43:39;100675.09;;;18.79;51.30
25638;BME280;13496;51.040;13.680;2023-04-10T07:48:42;100668.19;;;18.86;50.77
25638;BME280;13496;51.040;13.680;2023-04-10T07:53:44;100660.78;;;18.90;51.17
25638;BME280;13496;51.040;13.680;2023-04-10T07:58:46;100658.66;;;18.94;50.70
25638;BME280;13496;51.040;13.680;2023-04-10T08:03:48;100659.94;;;18.98;51.07
25638;BME280;13496;51.040;13.680;2023-04-10T08:08:50;100652.38;;;19.03;51.05
25638;BME280;13496;51.040;13.680;2023-04-10T08:13:54;100655.66;;;19.05;51.12
25638;BME280;13496;51.040;13.680;2023-04-10T08:18:57;100652.69;;;19.08;50.95
25638;BME280;13496;51.040;13.680;2023-04-10T08:24:03;100650.56;;;19.12;50.67
25638;BME280;13496;51.040;13.680;2023-04-10T08:29:05;100640.50;;;19.15;50.66
25638;BME280;13496;51.040;13.680;2023-04-10T08:34:06;100641.16;;;19.17;50.71
25638;BME280;13496;51.040;13.680;2023-04-10T08:39:08;100638.19;;;19.20;50.66
25638;BME280;13496;51.040;13.680;2023-04-10T08:44:10;100640.47;;;19.23;50.88
25638;BME280;13496;51.040;13.680;2023-04-10T08:49:34;100618.09;;;19.27;50.86
25638;BME280;13496;51.040;13.680;2023-04-10T08:54:40;100620.38;;;19.30;50.59
25638;BME280;13496;51.040;13.680;2023-04-10T08:59:44;100619.03;;;19.34;50.59
25638;BME280;13496;51.040;13.680;2023-04-10T09:04:51;100617.06;;;19.37;50.48
25638;BME280;13496;51.040;13.680;2023-04-10T09:09:55;100607.84;;;19.41;50.61
25638;BME280;13496;51.040;13.680;2023-04-10T09:14:57;100593.53;;;19.43;50.60
25638;BME280;13496;51.040;13.680;2023-04-10T09:19:58;100605.34;;;19.47;50.57
25638;BME280;13496;51.040;13.680;2023-04-10T09:25:02;100593.00;;;19.48;50.39
25638;BME280;13496;51.040;13.680;2023-04-10T09:30:06;100594.28;;;19.52;50.74
25638;BME280;13496;51.040;13.680;2023-04-10T09:35:14;100589.50;;;19.55;50.80
25638;BME280;13496;51.040;13.680;2023-04-10T09:40:23;100576.81;;;19.59;50.81
25638;BME280;13496;51.040;13.680;2023-04-10T09:45:25;100573.50;;;19.65;50.10
25638;BME280;13496;51.040;13.680;2023-04-10T09:50:37;100562.00;;;19.66;50.66
25638;BME280;13496;51.040;13.680;2023-04-10T09:55:41;100561.59;;;19.77;50.35
25638;BME280;13496;51.040;13.680;2023-04-10T10:00:45;100542.97;;;19.79;50.49
25638;BME280;13496;51.040;13.680;2023-04-10T10:05:49;100549.50;;;19.83;50.79
25638;BME280;13496;51.040;13.680;2023-04-10T10:10:56;100539.22;;;19.96;50.42
25638;BME280;13496;51.040;13.680;2023-04-10T10:16:10;100528.22;;;19.93;50.34
25638;BME280;13496;51.040;13.680;2023-04-10T10:21:13;100515.31;;;19.98;50.17
25638;BME280;13496;51.040;13.680;2023-04-10T10:26:16;100505.69;;;20.05;49.92
25638;BME280;13496;51.040;13.680;2023-04-10T10:31:20;100511.06;;;20.12;49.96
25638;BME280;13496;51.040;13.680;2023-04-10T10:36:24;100501.25;;;20.05;50.19
25638;BME280;13496;51.040;13.680;2023-04-10T10:42:04;100491.72;;;20.19;49.91
25638;BME280;13496;51.040;13.680;2023-04-10T10:47:18;100485.28;;;20.22;50.06
25638;BME280;13496;51.040;13.680;2023-04-10T10:52:40;100476.19;;;20.24;50.21
25638;BME280;13496;51.040;13.680;2023-04-10T10:57:45;100468.94;;;20.26;50.43
25638;BME280;13496;51.040;13.680;2023-04-10T11:08:07;100451.75;;;20.30;49.99
25638;BME280;13496;51.040;13.680;2023-04-10T11:13:17;100445.69;;;20.30;50.37
25638;BME280;13496;51.040;13.680;2023-04-10T11:18:18;100423.41;;;20.33;49.99
25638;BME280;13496;51.040;13.680;2023-04-10T11:23:21;100414.31;;;20.35;49.78
25638;BME280;13496;51.040;13.680;2023-04-10T11:28:32;100416.59;;;20.38;49.31
25638;BME280;13496;51.040;13.680;2023-04-10T11:33:35;100391.94;;;20.46;49.17
25638;BME280;13496;51.040;13.680;2023-04-10T11:38:37;100388.78;;;20.50;50.62
25638;BME280;13496;51.040;13.680;2023-04-10T11:43:39;100384.34;;;20.51;49.89
25638;BME280;13496;51.040;13.680;2023-04-10T11:48:40;100379.50;;;20.54;49.95
25638;BME280;13496;51.040;13.680;2023-04-10T11:53:42;100374.69;;;20.58;49.66
25638;BME280;13496;51.040;13.680;2023-04-10T11:58:44;100364.97;;;20.59;49.27
25638;BME280;13496;51.040;13.680;2023-04-10T12:03:46;100355.03;;;20.61;49.43
25638;BME280;13496;51.040;13.680;2023-04-10T12:08:47;100353.84;;;20.63;49.68
25638;BME280;13496;51.040;13.680;2023-04-10T12:13:53;100343.09;;;20.65;49.32
25638;BME280;13496;51.040;13.680;2023-04-10T12:18:55;100340.28;;;20.66;48.90
25638;BME280;13496;51.040;13.680;2023-04-10T12:23:58;100333.81;;;20.69;48.57
25638;BME280;13496;51.040;13.680;2023-04-10T12:28:59;100331.00;;;20.70;49.53
25638;BME280;13496;51.040;13.680;2023-04-10T12:34:02;100332.00;;;20.69;49.35
25638;BME280;13496;51.040;13.680;2023-04-10T12:39:20;100325.53;;;20.72;49.78
25638;BME280;13496;51.040;13.680;2023-04-10T12:44:22;100322.34;;;20.76;49.86
25638;BME280;13496;51.040;13.680;2023-04-10T12:49:24;100327.78;;;20.75;49.10
25638;BME280;13496;51.040;13.680;2023-04-10T12:54:27;100310.16;;;20.75;49.46
25638;BME280;13496;51.040;13.680;2023-04-10T12:59:29;100305.88;;;20.74;48.98
25638;BME280;13496;51.040;13.680;2023-04-10T13:04:31;100290.72;;;20.76;49.25
25638;BME280;13496;51.040;13.680;2023-04-10T13:09:33;100298.41;;;20.78;49.21
25638;BME280;13496;51.040;13.680;2023-04-10T13:14:35;100299.03;;;20.80;48.67
25638;BME280;13496;51.040;13.680;2023-04-10T13:19:37;100287.16;;;20.91;49.23
25638;BME280;13496;51.040;13.680;2023-04-10T13:24:40;100281.44;;;20.87;49.05
25638;BME280;13496;51.040;13.680;2023-04-10T13:29:42;100272.28;;;20.83;49.48
25638;BME280;13496;51.040;13.680;2023-04-10T13:34:44;100268.25;;;20.87;48.99
25638;BME280;13496;51.040;13.680;2023-04-10T13:39:45;100263.19;;;20.86;49.53
25638;BME280;13496;51.040;13.680;2023-04-10T13:44:47;100248.03;;;20.94;49.56
25638;BME280;13496;51.040;13.680;2023-04-10T13:49:49;100238.34;;;21.01;48.75
25638;BME280;13496;51.040;13.680;2023-04-10T13:54:50;100226.66;;;21.11;48.43
25638;BME280;13496;51.040;13.680;2023-04-10T13:59:52;100214.41;;;21.03;48.98
25638;BME280;13496;51.040;13.680;2023-04-10T14:04:54;100206.25;;;20.98;49.02
25638;BME280;13496;51.040;13.680;2023-04-10T14:09:56;100212.53;;;20.97;49.10
25638;BME280;13496;51.040;13.680;2023-04-10T14:14:58;100199.34;;;20.97;48.76
25638;BME280;13496;51.040;13.680;2023-04-10T14:19:59;100207.91;;;20.99;49.23
25638;BME280;13496;51.040;13.680;2023-04-10T14:25:02;100196.31;;;21.00;49.24
25638;BME280;13496;51.040;13.680;2023-04-10T14:30:05;100186.38;;;21.02;49.05
25638;BME280;13496;51.040;13.680;2023-04-10T14:35:08;100186.19;;;21.03;48.95
25638;BME280;13496;51.040;13.680;2023-04-10T14:40:10;100179.09;;;21.04;49.22
25638;BME280;13496;51.040;13.680;2023-04-10T14:45:11;100177.91;;;21.07;49.00
25638;BME280;13496;51.040;13.680;2023-04-10T14:50:13;100164.31;;;21.10;49.27
25638;BME280;13496;51.040;13.680;2023-04-10T14:55:15;100158.22;;;21.09;48.65
25638;BME280;13496;51.040;13.680;2023-04-10T15:00:17;100151.31;;;21.08;48.98
25638;BME280;13496;51.040;13.680;2023-04-10T15:05:20;100153.56;;;21.11;48.98
25638;BME280;13496;51.040;13.680;2023-04-10T15:10:22;100140.00;;;21.14;48.94
25638;BME280;13496;51.040;13.680;2023-04-10T15:15:24;100122.13;;;21.16;48.64
25638;BME280;13496;51.040;13.680;2023-04-10T15:20:26;100112.00;;;21.20;48.65
25638;BME280;13496;51.040;13.680;2023-04-10T15:25:27;100108.53;;;21.19;48.64
25638;BME280;13496;51.040;13.680;2023-04-10T15:30:29;100103.28;;;21.19;48.58
25638;BME280;13496;51.040;13.680;2023-04-10T15:35:31;100104.88;;;21.20;48.72
25638;BME280;13496;51.040;13.680;2023-04-10T15:40:37;100089.06;;;21.20;48.68
25638;BME280;13496;51.040;13.680;2023-04-10T15:45:38;100084.78;;;21.19;48.80
25638;BME280;13496;51.040;13.680;2023-04-10T15:50:40;100083.78;;;21.20;48.45
25638;BME280;13496;51.040;13.680;2023-04-10T15:55:43;100080.53;;;21.18;48.67
25638;BME280;13496;51.040;13.680;2023-04-10T16:00:45;100065.31;;;21.20;48.58
25638;BME280;13496;51.040;13.680;2023-04-10T16:05:46;100067.13;;;21.20;48.44
25638;BME280;13496;51.040;13.680;2023-04-10T16:10:48;100061.84;;;21.20;48.41
25638;BME280;13496;51.040;13.680;2023-04-10T16:15:50;100045.84;;;21.21;48.35
25638;BME280;13496;51.040;13.680;2023-04-10T16:20:52;100044.81;;;21.22;48.02
25638;BME280;13496;51.040;13.680;2023-04-10T16:25:53;100040.97;;;21.25;48.20
25638;BME280;13496;51.040;13.680;2023-04-10T16:30:55;100031.00;;;21.20;48.24
25638;BME280;13496;51.040;13.680;2023-04-10T16:35:57;100032.22;;;21.18;48.41
25638;BME280;13496;51.040;13.680;2023-04-10T16:41:03;100028.56;;;21.19;48.38
25638;BME280;13496;51.040;13.680;2023-04-10T16:46:05;100023.28;;;21.19;48.56
25638;BME280;13496;51.040;13.680;2023-04-10T16:51:14;100014.34;;;21.20;48.45
25638;BME280;13496;51.040;13.680;2023-04-10T16:56:16;100010.69;;;21.21;48.50
25638;BME280;13496;51.040;13.680;2023-04-10T17:01:20;100004.00;;;21.18;48.44
25638;BME280;13496;51.040;13.680;2023-04-10T17:06:25;100002.19;;;21.19;48.79
25638;BME280;13496;51.040;13.680;2023-04-10T17:11:27;99993.03;;;21.15;48.57
25638;BME280;13496;51.040;13.680;2023-04-10T17:16:29;99991.59;;;21.12;48.85
25638;BME280;13496;51.040;13.680;2023-04-10T17:21:31;99987.34;;;21.11;48.98
25638;BME280;13496;51.040;13.680;2023-04-10T17:26:33;99983.28;;;21.09;48.80
25638;BME280;13496;51.040;13.680;2023-04-10T17:31:34;99972.13;;;21.07;48.99
25638;BME280;13496;51.040;13.680;2023-04-10T17:36:36;99976.34;;;21.01;48.97
25638;BME280;13496;51.040;13.680;2023-04-10T17:41:38;99975.53;;;21.00;48.95
25638;BME280;13496;51.040;13.680;2023-04-10T17:46:40;99977.75;;;20.97;49.20
25638;BME280;13496;51.040;13.680;2023-04-10T17:51:42;99970.06;;;20.95;49.00
25638;BME280;13496;51.040;13.680;2023-04-10T17:56:44;99967.81;;;20.92;49.30
25638;BME280;13496;51.040;13.680;2023-04-10T18:01:46;99953.19;;;20.90;49.01
25638;BME280;13496;51.040;13.680;2023-04-10T18:06:47;99948.31;;;20.87;49.62
25638;BME280;13496;51.040;13.680;2023-04-10T18:11:49;99948.69;;;20.84;49.40
25638;BME280;13496;51.040;13.680;2023-04-10T18:16:51;99944.44;;;20.83;49.26
25638;BME280;13496;51.040;13.680;2023-04-10T18:21:53;99944.81;;;20.79;49.18
25638;BME280;13496;51.040;13.680;2023-04-10T18:26:55;99943.22;;;20.78;48.96
25638;BME280;13496;51.040;13.680;2023-04-10T18:31:57;99925.13;;;20.75;49.30
25638;BME280;13496;51.040;13.680;2023-04-10T18:36:59;99928.16;;;20.72;49.50
25638;BME280;13496;51.040;13.680;2023-04-10T18:42:00;99928.38;;;20.71;49.27
25638;BME280;13496;51.040;13.680;2023-04-10T18:47:03;99922.28;;;20.70;49.52
25638;BME280;13496;51.040;13.680;2023-04-10T18:52:06;99910.31;;;20.68;49.61
25638;BME280;13496;51.040;13.680;2023-04-10T18:57:08;99907.88;;;20.66;49.46
25638;BME280;13496;51.040;13.680;2023-04-10T19:02:10;99905.63;;;20.63;49.73
25638;BME280;13496;51.040;13.680;2023-04-10T19:07:12;99906.66;;;20.62;49.85
25638;BME280;13496;51.040;13.680;2023-04-10T19:12:14;99901.78;;;20.59;49.63
25638;BME280;13496;51.040;13.680;2023-04-10T19:17:15;99891.63;;;20.56;49.86
25638;BME280;13496;51.040;13.680;2023-04-10T19:22:20;99884.72;;;20.55;49.79
25638;BME280;13496;51.040;13.680;2023-04-10T19:27:22;99876.19;;;20.53;49.95
25638;BME280;13496;51.040;13.680;2023-04-10T19:32:24;99877.00;;;20.53;50.33
25638;BME280;13496;51.040;13.680;2023-04-10T19:37:28;99853.66;;;20.50;50.53
25638;BME280;13496;51.040;13.680;2023-04-10T19:42:33;99852.06;;;20.49;50.42
25638;BME280;13496;51.040;13.680;2023-04-10T19:47:34;99843.31;;;20.49;50.33
25638;BME280;13496;51.040;13.680;2023-04-10T19:52:37;99842.06;;;20.45;50.46
25638;BME280;13496;51.040;13.680;2023-04-10T19:57:39;99843.69;;;20.46;50.69
25638;BME280;13496;51.040;13.680;2023-04-10T20:02:41;99847.34;;;20.45;50.59
25638;BME280;13496;51.040;13.680;2023-04-10T20:07:42;99838.81;;;20.43;50.27
25638;BME280;13496;51.040;13.680;2023-04-10T20:12:44;99835.56;;;20.41;50.14
25638;BME280;13496;51.040;13.680;2023-04-10T20:17:46;99826.06;;;20.40;50.29
25638;BME280;13496;51.040;13.680;2023-04-10T20:22:48;99815.69;;;20.38;50.48
25638;BME280;13496;51.040;13.680;2023-04-10T20:27:49;99805.97;;;20.39;50.22
25638;BME280;13496;51.040;13.680;2023-04-10T20:32:51;99793.19;;;20.36;50.38
25638;BME280;13496;51.040;13.680;2023-04-10T20:37:53;99780.63;;;20.38;50.42
25638;BME280;13496;51.040;13.680;2023-04-10T20:42:55;99782.63;;;20.36;50.14
25638;BME280;13496;51.040;13.680;2023-04-10T20:47:56;99778.38;;;20.35;50.41
25638;BME280;13496;51.040;13.680;2023-04-10T20:52:58;99762.97;;;20.31;50.08
25638;BME280;13496;51.040;13.680;2023-04-10T20:58:00;99767.81;;;20.28;50.40
25638;BME280;13496;51.040;13.680;2023-04-10T21:03:02;99754.84;;;20.26;50.37
25638;BME280;13496;51.040;13.680;2023-04-10T21:08:03;99753.25;;;20.25;50.51
25638;BME280;13496;51.040;13.680;2023-04-10T21:13:05;99754.06;;;20.26;50.53
25638;BME280;13496;51.040;13.680;2023-04-10T21:18:07;99752.19;;;20.20;50.26
25638;BME280;13496;51.040;13.680;2023-04-10T21:23:08;99757.28;;;20.21;49.97
25638;BME280;13496;51.040;13.680;2023-04-10T21:28:10;99750.59;;;20.19;50.18
25638;BME280;13496;51.040;13.680;2023-04-10T21:33:13;99744.50;;;20.18;50.43
25638;BME280;13496;51.040;13.680;2023-04-10T21:38:14;99731.72;;;20.15;50.58
25638;BME280;13496;51.040;13.680;2023-04-10T21:43:16;99712.88;;;20.12;50.34
25638;BME280;13496;51.040;13.680;2023-04-10T21:48:18;99704.97;;;20.12;50.26
25638;BME280;13496;51.040;13.680;2023-04-10T21:53:20;99695.44;;;20.11;50.35
25638;BME280;13496;51.040;13.680;2023-04-10T21:58:22;99696.44;;;20.10;50.28
25638;BME280;13496;51.040;13.680;2023-04-10T22:03:24;99702.94;;;20.07;50.01
25638;BME280;13496;51.040;13.680;2023-04-10T22:08:27;99697.66;;;20.07;50.01
25638;BME280;13496;51.040;13.680;2023-04-10T22:13:29;99696.88;;;20.06;50.29
25638;BME280;13496;51.040;13.680;2023-04-10T22:18:30;99681.44;;;20.03;50.24
25638;BME280;13496;51.040;13.680;2023-04-10T22:23:32;99680.81;;;20.01;50.11
25638;BME280;13496;51.040;13.680;2023-04-10T22:28:34;99670.13;;;20.03;50.05
25638;BME280;13496;51.040;13.680;2023-04-10T22:33:35;99662.59;;;20.00;49.81
25638;BME280;13496;51.040;13.680;2023-04-10T22:38:38;99657.72;;;19.97;49.84
25638;BME280;13496;51.040;13.680;2023-04-10T22:43:40;99652.69;;;19.95;50.11
25638;BME280;13496;51.040;13.680;2023-04-10T22:48:41;99651.03;;;19.94;50.07
25638;BME280;13496;51.040;13.680;2023-04-10T22:53:43;99635.44;;;19.93;50.13
25638;BME280;13496;51.040;13.680;2023-04-10T22:58:45;99612.34;;;19.88;50.55
25638;BME280;13496;51.040;13.680;2023-04-10T23:03:46;99602.81;;;19.87;50.07
25638;BME280;13496;51.040;13.680;2023-04-10T23:08:50;99601.00;;;19.88;50.14
25638;BME280;13496;51.040;13.680;2023-04-10T23:13:51;99587.63;;;19.82;50.14
25638;BME280;13496;51.040;13.680;2023-04-10T23:18:53;99586.19;;;19.80;50.52
25638;BME280;13496;51.040;13.680;2023-04-10T23:23:55;99585.19;;;19.81;50.46
25638;BME280;13496;51.040;13.680;2023-04-10T23:28:57;99574.25;;;19.77;50.25
25638;BME280;13496;51.040;13.680;2023-04-10T23:33:58;99566.53;;;19.76;50.47
25638;BME280;13496;51.040;13.680;2023-04-10T23:39:00;99555.41;;;19.74;50.65
25638;BME280;13496;51.040;13.680;2023-04-10T23:44:02;99538.00;;;19.73;50.67
25638;BME280;13496;51.040;13.680;2023-04-10T23:49:04;99531.50;;;19.69;50.41
25638;BME280;13496;51.040;13.680;2023-04-10T23:54:05;99513.28;;;19.67;50.38
25638;BME280;13496;51.040;13.680;2023-04-10T23:59:07;99502.97;;;19.66;50.65
